Saint Francisville, Illinois
Current Conditions -  °F | °C
As of 10:55 PM on Thursday 30 Oct 2014 (Local Time) from KAJG Reporting Station
Drizzle Drizzle  
Wind Chill: 52°   Ceiling: 4000
Heat Index: 52°   Visibility: 10mi
Dew Point: 45°   Wind: 7mph
Humidity: 76%   Direction: 30°NNE
Pressure: 30.06"   Gusts: NA
Location:  38.59°N, 87.65°W
Report Text: KAJG 310355Z AUTO 03006KT 10SM DZ BKN040 OVC055 11/07 A3006 RMK AO2
Loading
Personal Weather Stations






























Interactive Weather Map
Tropical Storm Tracking
New forecast layout! Learn more

10-Day Weather Forecast

Advertisements
Track Severe Weather on mobile